Time;durP1;ratioP1;P1;durP2;ratioP2;P2;SDS_P1;SDS_P2;PMS_P1;PMS_P2;Temp;Humidity;BMP_temperature;BMP_pressure;BME280_temperature;BME280_humidity;BME280_pressure;Samples;Min_cycle;Max_cycle;Signal;HPM_P1;HPM_P2
2023/12/15 00:00:30;;;;;;;13.63;7.97;;;;;;;6.30;51.23;102367.84;4942902;28;20130;-73
2023/12/15 00:02:58;;;;;;;16.17;9.35;;;;;;;6.29;51.29;102375.13;4946566;29;20119;-73
2023/12/15 00:05:26;;;;;;;14.73;9.07;;;;;;;6.27;51.22;102373.44;4949095;29;20127;-73
2023/12/15 00:07:56;;;;;;;15.77;10.00;;;;;;;6.27;51.44;102376.16;4940502;28;20043;-73
2023/12/15 00:10:24;;;;;;;15.32;9.25;;;;;;;6.23;51.63;102367.25;4931933;29;20039;-73
2023/12/15 00:12:52;;;;;;;15.35;9.48;;;;;;;6.23;51.28;102375.41;4939911;29;20048;-73
2023/12/15 00:15:20;;;;;;;14.27;9.07;;;;;;;6.20;51.19;102370.09;4943119;28;20114;-73
2023/12/15 00:17:48;;;;;;;14.95;8.75;;;;;;;6.18;51.46;102363.88;4942566;28;20560;-73
2023/12/15 00:20:16;;;;;;;14.23;9.02;;;;;;;6.18;51.43;102372.03;4927002;29;20066;-73
2023/12/15 00:22:48;;;;;;;12.50;8.30;;;;;;;6.17;51.86;102375.69;4944699;29;20058;-72
2023/12/15 00:25:17;;;;;;;14.52;9.27;;;;;;;6.18;51.57;102384.72;4940385;29;20138;-73
2023/12/15 00:27:45;;;;;;;15.95;9.43;;;;;;;6.16;51.78;102383.91;4937570;29;20059;-73
2023/12/15 00:30:14;;;;;;;14.18;8.38;;;;;;;6.16;51.66;102375.75;4940619;28;20630;-73
2023/12/15 00:32:42;;;;;;;13.70;8.52;;;;;;;6.15;51.93;102379.41;4927723;29;20061;-72
2023/12/15 00:35:09;;;;;;;14.23;8.57;;;;;;;6.15;51.81;102384.84;4936006;29;20044;-73
2023/12/15 00:37:37;;;;;;;15.73;9.00;;;;;;;6.15;51.97;102384.84;4927983;29;20547;-73
2023/12/15 00:40:07;;;;;;;13.70;8.63;;;;;;;6.16;51.82;102381.19;4948489;28;20124;-73
2023/12/15 00:42:36;;;;;;;14.15;9.07;;;;;;;6.16;51.96;102384.78;4923487;29;20045;-73
2023/12/15 00:45:04;;;;;;;14.13;8.32;;;;;;;6.15;51.76;102391.19;4919952;28;20138;-74
2023/12/15 00:47:32;;;;;;;13.90;8.25;;;;;;;6.15;51.89;102395.72;4922115;29;20055;-74
2023/12/15 00:50:01;;;;;;;13.65;8.45;;;;;;;6.15;51.95;102396.63;4929905;29;20043;-73
2023/12/15 00:52:29;;;;;;;14.07;8.45;;;;;;;6.15;51.70;102390.28;4918340;29;20067;-74
2023/12/15 00:54:57;;;;;;;13.98;7.80;;;;;;;6.15;51.96;102402.03;4935184;28;20539;-73
2023/12/15 00:57:25;;;;;;;14.80;9.25;;;;;;;6.15;52.18;102412.91;4941933;28;20457;-73
2023/12/15 00:59:55;;;;;;;14.15;8.77;;;;;;;6.17;52.09;102415.56;4941471;28;20040;-73
2023/12/15 01:02:23;;;;;;;14.88;8.98;;;;;;;6.15;52.39;102421.06;4944246;29;20052;-73
2023/12/15 01:04:51;;;;;;;14.32;9.02;;;;;;;6.15;51.93;102428.34;4947477;29;20039;-73
2023/12/15 01:07:19;;;;;;;14.15;8.88;;;;;;;6.15;51.93;102431.06;4940088;28;20087;-73
2023/12/15 01:09:47;;;;;;;14.20;8.35;;;;;;;6.15;52.13;102431.94;4939584;28;20066;-73
2023/12/15 01:12:15;;;;;;;14.15;8.35;;;;;;;6.13;51.98;102433.84;4921746;29;20169;-73
2023/12/15 01:14:43;;;;;;;15.25;9.27;;;;;;;6.13;51.98;102441.13;4942999;29;20119;-73
2023/12/15 01:17:12;;;;;;;13.95;8.60;;;;;;;6.13;52.22;102447.44;4941399;28;20052;-72
2023/12/15 01:19:40;;;;;;;12.90;8.05;;;;;;;6.11;52.13;102443.94;4947312;28;20438;-73
2023/12/15 01:22:08;;;;;;;13.63;8.30;;;;;;;6.11;52.10;102451.19;4939211;28;20054;-73
2023/12/15 01:24:36;;;;;;;13.88;8.63;;;;;;;6.10;52.03;102457.56;4940480;28;20578;-73
2023/12/15 01:27:04;;;;;;;12.70;8.32;;;;;;;6.08;52.26;102457.63;4942618;28;20527;-73
2023/12/15 01:29:32;;;;;;;14.63;8.82;;;;;;;6.07;52.05;102445.00;4945136;29;20107;-73
2023/12/15 01:32:00;;;;;;;13.45;8.45;;;;;;;6.06;52.35;102457.69;4936563;28;20054;-73
2023/12/15 01:34:30;;;;;;;14.15;8.52;;;;;;;6.07;52.31;102454.03;4941356;28;20055;-72
2023/12/15 01:36:57;;;;;;;15.82;9.43;;;;;;;6.04;52.36;102446.00;4927569;29;20071;-73
2023/12/15 01:39:25;;;;;;;15.23;9.55;;;;;;;6.04;52.21;102453.28;4946746;28;20044;-73
2023/12/15 01:41:53;;;;;;;13.60;8.55;;;;;;;6.03;52.37;102460.56;4938538;28;20052;-73
2023/12/15 01:44:21;;;;;;;14.13;8.70;;;;;;;6.02;52.32;102461.50;4934786;29;20484;-73
2023/12/15 01:46:49;;;;;;;14.07;8.63;;;;;;;6.02;52.49;102466.06;4942926;28;20052;-73
2023/12/15 01:49:17;;;;;;;14.68;9.30;;;;;;;6.01;52.38;102464.28;4923621;29;20051;-74
2023/12/15 01:51:46;;;;;;;13.13;7.68;;;;;;;6.03;52.75;102470.56;4945814;28;20591;-73
2023/12/15 01:54:14;;;;;;;12.95;7.93;;;;;;;6.03;52.56;102474.16;4939896;28;20535;-73
2023/12/15 01:56:42;;;;;;;12.70;7.57;;;;;;;6.04;52.58;102477.72;4923182;29;20103;-73
2023/12/15 01:59:11;;;;;;;14.65;8.55;;;;;;;6.06;52.71;102479.44;4922220;29;20609;-73
2023/12/15 02:01:39;;;;;;;13.38;8.35;;;;;;;6.05;52.95;102474.94;4943819;28;20066;-74
2023/12/15 02:04:07;;;;;;;14.10;8.75;;;;;;;6.06;52.77;102487.59;4941188;28;20064;-73
2023/12/15 02:06:35;;;;;;;13.82;8.25;;;;;;;6.07;52.88;102475.78;4937644;28;20194;-74
2023/12/15 02:09:04;;;;;;;14.20;8.73;;;;;;;6.09;52.98;102483.88;4931288;29;20047;-73
2023/12/15 02:11:32;;;;;;;13.13;8.05;;;;;;;6.09;52.86;102485.72;4939492;29;20047;-73
2023/12/15 02:14:00;;;;;;;14.50;8.65;;;;;;;6.10;52.77;102495.63;4941354;28;20071;-73
2023/12/15 02:16:28;;;;;;;15.50;9.18;;;;;;;6.09;52.98;102489.31;4935488;29;20083;-73
2023/12/15 02:18:56;;;;;;;13.27;8.18;;;;;;;6.11;52.78;102491.97;4942940;28;20093;-73
2023/12/15 02:21:24;;;;;;;14.15;8.57;;;;;;;6.11;52.93;102495.56;4941654;28;20110;-73
2023/12/15 02:23:53;;;;;;;12.73;8.57;;;;;;;6.13;52.92;102493.66;4919873;28;20658;-73
2023/12/15 02:26:21;;;;;;;12.75;7.43;;;;;;;6.12;53.17;102496.47;4942708;28;20071;-73
2023/12/15 02:28:49;;;;;;;15.07;8.40;;;;;;;6.14;53.08;102506.28;4937236;28;20056;-73
2023/12/15 02:31:18;;;;;;;13.75;8.63;;;;;;;6.15;53.08;102496.31;4937099;28;20052;-73
2023/12/15 02:33:46;;;;;;;13.13;8.07;;;;;;;6.16;52.76;102498.06;4934071;29;20114;-73
2023/12/15 02:36:19;;;;;;;11.75;7.05;;;;;;;6.19;53.03;102503.41;4941060;28;20062;-73
2023/12/15 02:38:47;;;;;;;;;;;;;;;5.94;54.11;102495.41;4946825;28;20452;-73
2023/12/15 02:41:16;;;;;;;12.77;7.22;;;;;;;6.15;53.21;102499.91;4940279;28;20387;-73
2023/12/15 02:43:44;;;;;;;14.02;7.85;;;;;;;6.19;52.98;102503.41;4937304;29;20044;-73
2023/12/15 02:46:12;;;;;;;12.73;7.47;;;;;;;6.21;52.93;102506.91;4938623;28;20504;-73
2023/12/15 02:48:40;;;;;;;14.43;7.20;;;;;;;6.21;53.05;102502.34;4939757;28;20043;-73
2023/12/15 02:51:08;;;;;;;12.40;7.30;;;;;;;6.23;53.10;102499.56;4939221;28;20082;-73
2023/12/15 02:53:36;;;;;;;14.48;7.80;;;;;;;6.23;53.00;102495.03;4944785;28;20091;-73
2023/12/15 02:56:04;;;;;;;12.10;7.50;;;;;;;6.25;53.38;102497.69;4941879;28;20110;-73
2023/12/15 02:58:34;;;;;;;13.63;7.78;;;;;;;6.27;53.46;102503.94;4943403;28;20067;-73
2023/12/15 03:01:02;;;;;;;14.50;8.15;;;;;;;6.26;53.21;102504.91;4924244;29;20115;-73
2023/12/15 03:03:29;;;;;;;13.90;8.30;;;;;;;6.27;53.25;102503.94;4941932;28;20535;-73
2023/12/15 03:05:57;;;;;;;12.57;8.02;;;;;;;6.28;53.26;102503.00;4917293;29;20611;-73
2023/12/15 03:08:27;;;;;;;12.75;7.95;;;;;;;6.29;53.25;102502.03;4938288;28;20059;-73
2023/12/15 03:10:57;;;;;;;13.02;7.45;;;;;;;6.29;53.45;102488.44;4920959;29;20115;-73
2023/12/15 03:13:26;;;;;;;12.55;7.20;;;;;;;6.31;53.32;102498.28;4930580;29;20122;-73
2023/12/15 03:15:58;;;;;;;12.63;7.28;;;;;;;6.31;53.39;102506.44;4928548;29;20043;-73
2023/12/15 03:18:26;;;;;;;11.43;7.60;;;;;;;6.28;53.24;102513.88;4937210;29;20131;-73
2023/12/15 03:20:53;;;;;;;11.85;7.07;;;;;;;6.31;53.41;102517.31;4936269;29;20318;-73
2023/12/15 03:23:21;;;;;;;12.65;7.20;;;;;;;6.32;53.33;102531.81;4946035;29;20507;-73
2023/12/15 03:25:49;;;;;;;11.57;7.25;;;;;;;6.33;53.60;102528.16;4941602;29;20048;-73
2023/12/15 03:28:17;;;;;;;12.23;7.35;;;;;;;6.33;53.23;102523.59;4923967;29;20122;-73
2023/12/15 03:30:45;;;;;;;11.10;7.63;;;;;;;6.33;53.51;102534.47;4943364;28;20062;-72
2023/12/15 03:33:14;;;;;;;13.60;7.28;;;;;;;6.37;53.41;102537.91;4928297;29;20126;-72
2023/12/15 03:35:42;;;;;;;13.02;8.00;;;;;;;6.35;53.40;102546.16;4943478;29;20047;-73
2023/12/15 03:38:13;;;;;;;14.48;7.80;;;;;;;6.36;53.70;102547.94;4948253;28;20043;-73
2023/12/15 03:40:41;;;;;;;12.63;7.35;;;;;;;6.35;53.44;102548.00;4926026;29;20043;-73
2023/12/15 03:43:09;;;;;;;13.65;7.90;;;;;;;6.35;53.40;102551.63;4939677;29;20613;-73
2023/12/15 03:45:37;;;;;;;14.18;8.73;;;;;;;6.36;53.81;102556.09;4944907;28;20055;-73
2023/12/15 03:48:06;;;;;;;10.80;7.53;;;;;;;6.37;53.27;102556.97;4935047;28;20080;-73
2023/12/15 03:50:36;;;;;;;12.75;8.07;;;;;;;6.38;53.79;102564.16;4923275;29;20044;-72
2023/12/15 03:53:04;;;;;;;12.52;7.63;;;;;;;6.38;53.43;102572.31;4939966;28;20040;-73
2023/12/15 03:55:32;;;;;;;13.10;8.38;;;;;;;6.38;53.48;102572.31;4938744;28;20055;-72
2023/12/15 03:58:00;;;;;;;13.48;7.88;;;;;;;6.38;53.68;102558.72;4935050;28;20051;-73
2023/12/15 04:00:28;;;;;;;12.10;7.20;;;;;;;6.40;53.54;102562.28;4939789;29;20111;-73
2023/12/15 04:02:56;;;;;;;12.82;8.05;;;;;;;6.39;53.64;102572.25;4928746;29;20752;-73
2023/12/15 04:05:24;;;;;;;13.32;8.13;;;;;;;6.39;54.03;102571.38;4936316;29;20552;-73
2023/12/15 04:07:53;;;;;;;11.13;6.97;;;;;;;6.40;53.83;102573.16;4941561;29;20070;-73
2023/12/15 04:10:21;;;;;;;12.68;7.82;;;;;;;6.39;53.63;102587.69;4936484;28;20048;-73
2023/12/15 04:12:49;;;;;;;12.85;7.57;;;;;;;6.39;53.75;102591.31;4936857;29;20204;-73
2023/12/15 04:15:19;;;;;;;12.40;7.38;;;;;;;6.40;53.67;102593.06;4923079;29;20071;-73
2023/12/15 04:17:47;;;;;;;12.63;7.38;;;;;;;6.40;53.82;102589.47;4933316;28;20070;-74
2023/12/15 04:20:15;;;;;;;13.73;8.35;;;;;;;6.40;53.93;102594.91;4922682;29;20102;-73
2023/12/15 04:22:43;;;;;;;14.35;8.20;;;;;;;6.42;54.01;102599.34;4945118;28;20509;-73
2023/12/15 04:25:13;;;;;;;11.95;8.00;;;;;;;6.43;54.01;102603.84;4921684;29;20046;-73
2023/12/15 04:27:41;;;;;;;11.85;7.53;;;;;;;6.43;54.00;102602.94;4940237;28;20047;-73
2023/12/15 04:30:10;;;;;;;13.68;8.65;;;;;;;6.44;54.15;102611.06;4945776;28;20389;-73
2023/12/15 04:32:38;;;;;;;12.55;8.63;;;;;;;6.44;53.80;102611.06;4931320;29;20039;-74
2023/12/15 04:35:07;;;;;;;13.82;8.35;;;;;;;6.45;53.94;102609.19;4944425;28;20047;-74
2023/12/15 04:37:35;;;;;;;12.10;8.32;;;;;;;6.45;54.36;102606.47;4920638;29;20136;-74
2023/12/15 04:40:04;;;;;;;12.85;8.13;;;;;;;6.45;54.36;102615.50;4944834;28;20055;-74
2023/12/15 04:42:33;;;;;;;14.32;8.52;;;;;;;6.47;54.27;102610.00;4948529;29;20078;-73
2023/12/15 04:45:01;;;;;;;15.43;8.27;;;;;;;6.45;54.14;102612.78;4940286;29;20040;-74
2023/12/15 04:47:29;;;;;;;12.05;7.97;;;;;;;6.44;53.97;102611.06;4938450;29;20705;-73
2023/12/15 04:49:57;;;;;;;13.73;8.32;;;;;;;6.46;54.30;102605.50;4944285;28;20051;-74
2023/12/15 04:52:25;;;;;;;15.05;8.20;;;;;;;6.46;54.39;102608.25;4930584;29;20556;-74
2023/12/15 04:54:52;;;;;;;13.43;8.25;;;;;;;6.46;54.35;102619.13;4925418;29;20138;-74
2023/12/15 04:57:20;;;;;;;12.32;8.25;;;;;;;6.45;54.40;102622.78;4938155;29;20138;-74
2023/12/15 04:59:49;;;;;;;13.60;8.20;;;;;;;6.47;54.22;102618.16;4939652;28;20075;-73
2023/12/15 05:02:17;;;;;;;12.35;7.97;;;;;;;6.45;54.20;102615.50;4937335;29;20059;-73
2023/12/15 05:04:45;;;;;;;13.70;8.55;;;;;;;6.47;54.35;102623.59;4928382;29;20109;-74
2023/12/15 05:07:13;;;;;;;14.43;8.43;;;;;;;6.48;54.45;102627.22;4946191;28;20517;-74
2023/12/15 05:09:41;;;;;;;12.32;7.93;;;;;;;6.48;54.25;102633.53;4944245;28;20106;-74
2023/12/15 05:12:09;;;;;;;12.55;8.30;;;;;;;6.48;54.36;102632.66;4943086;29;20055;-74
2023/12/15 05:14:37;;;;;;;13.93;7.82;;;;;;;6.48;54.51;102633.53;4945181;29;20471;-74
2023/12/15 05:17:06;;;;;;;14.23;8.43;;;;;;;6.50;54.70;102628.03;4942022;28;20055;-74
2023/12/15 05:19:34;;;;;;;11.07;8.02;;;;;;;6.48;54.47;102633.53;4922544;28;20103;-74
2023/12/15 05:22:02;;;;;;;12.30;8.13;;;;;;;6.49;54.62;102631.72;4938254;28;20051;-74
2023/12/15 05:24:31;;;;;;;14.73;8.18;;;;;;;6.50;54.58;102638.94;4934652;28;20062;-74
2023/12/15 05:26:59;;;;;;;13.55;8.68;;;;;;;6.49;54.77;102648.91;4944659;28;20050;-74
2023/12/15 05:29:27;;;;;;;15.00;8.68;;;;;;;6.49;54.58;102648.03;4940366;29;20047;-74
2023/12/15 05:31:55;;;;;;;15.38;8.30;;;;;;;6.49;54.63;102646.19;4941797;28;20042;-74
2023/12/15 05:34:24;;;;;;;14.95;8.10;;;;;;;6.51;54.73;102647.03;4918511;29;20048;-74
2023/12/15 05:36:52;;;;;;;13.27;8.18;;;;;;;6.49;54.55;102648.91;4918516;29;20111;-74
2023/12/15 05:39:20;;;;;;;16.15;8.70;;;;;;;6.51;54.57;102654.31;4935955;28;20096;-74
2023/12/15 05:41:47;;;;;;;13.35;8.57;;;;;;;6.50;55.11;102645.25;4936928;29;20131;-74
2023/12/15 05:44:15;;;;;;;13.20;9.13;;;;;;;6.51;54.86;102654.31;4937944;29;20122;-74
2023/12/15 05:46:43;;;;;;;12.80;8.35;;;;;;;6.51;54.97;102655.19;4940657;28;20044;-74
2023/12/15 05:49:11;;;;;;;14.13;8.85;;;;;;;6.50;54.79;102658.84;4928555;29;20517;-74
2023/12/15 05:51:48;;;;;;;14.68;8.65;;;;;;;6.53;55.17;102663.28;4923378;29;20043;-74
2023/12/15 05:54:16;;;;;;;14.00;8.88;;;;;;;6.51;54.82;102667.91;4940174;28;20079;-74
2023/12/15 05:56:44;;;;;;;13.38;8.57;;;;;;;6.51;54.78;102671.50;4943032;29;20046;-74
2023/12/15 05:59:12;;;;;;;12.80;8.32;;;;;;;6.51;54.75;102674.22;4936206;29;20059;-74
2023/12/15 06:01:39;;;;;;;13.18;8.30;;;;;;;6.51;54.86;102678.78;4942925;28;20035;-74
2023/12/15 06:04:08;;;;;;;12.95;8.05;;;;;;;6.51;55.04;102674.22;4942470;28;20122;-73
2023/12/15 06:06:36;;;;;;;13.45;7.90;;;;;;;6.51;54.88;102681.50;4943372;28;20102;-73
2023/12/15 06:09:05;;;;;;;13.82;8.05;;;;;;;6.52;54.91;102684.16;4943461;29;20501;-73
2023/12/15 06:11:33;;;;;;;13.70;8.80;;;;;;;6.51;54.93;102687.84;4927775;29;20141;-74
2023/12/15 06:14:01;;;;;;;14.95;8.15;;;;;;;6.51;55.08;102693.28;4940812;28;20145;-74
2023/12/15 06:16:29;;;;;;;15.68;8.77;;;;;;;6.53;55.28;102699.50;4942562;28;20086;-74
2023/12/15 06:18:57;;;;;;;13.95;8.63;;;;;;;6.53;54.96;102695.94;4941216;29;20068;-73
2023/12/15 06:21:26;;;;;;;14.00;8.90;;;;;;;6.55;55.21;102691.28;4944513;28;20047;-73
2023/12/15 06:23:55;;;;;;;12.63;8.07;;;;;;;6.54;54.98;102701.28;4928213;28;20052;-73
2023/12/15 06:26:25;;;;;;;14.02;9.25;;;;;;;6.56;55.14;102693.06;4947079;28;20123;-75
2023/12/15 06:28:54;;;;;;;14.15;8.73;;;;;;;6.54;55.38;102690.41;4944375;28;20039;-74
2023/12/15 06:31:25;;;;;;;14.73;8.70;;;;;;;6.56;55.28;102696.66;4943839;28;20042;-74
2023/12/15 06:33:54;;;;;;;12.75;8.43;;;;;;;6.56;55.35;102702.09;4938867;28;20051;-74
2023/12/15 06:36:22;;;;;;;12.77;7.75;;;;;;;6.56;55.08;102707.56;4922977;29;20513;-74
2023/12/15 06:38:53;;;;;;;13.13;8.45;;;;;;;6.57;55.25;102709.31;4942464;28;20047;-74
2023/12/15 06:41:21;;;;;;;14.85;9.05;;;;;;;6.58;55.36;102713.81;4938623;28;20201;-74
2023/12/15 06:43:50;;;;;;;14.05;8.60;;;;;;;6.59;55.52;102715.59;4940091;29;20086;-74
2023/12/15 06:46:18;;;;;;;13.93;8.48;;;;;;;6.59;55.22;102712.88;4942969;28;20039;-74
2023/12/15 06:48:46;;;;;;;13.65;8.40;;;;;;;6.59;55.13;102721.03;4935431;29;20055;-74
2023/12/15 06:51:15;;;;;;;14.27;7.93;;;;;;;6.59;55.36;102721.03;4927592;28;20432;-74
2023/12/15 06:53:42;;;;;;;13.27;8.50;;;;;;;6.59;55.48;102721.03;4926159;29;20056;-74
2023/12/15 06:56:10;;;;;;;14.23;8.48;;;;;;;6.61;55.51;102724.56;4940606;28;20040;-75
2023/12/15 06:58:38;;;;;;;13.25;8.18;;;;;;;6.61;55.20;102720.97;4941979;29;20126;-74
2023/12/15 07:01:08;;;;;;;14.02;8.88;;;;;;;6.63;55.74;102724.50;4957719;23;20169;-73
2023/12/15 07:03:36;;;;;;;13.02;8.70;;;;;;;6.61;55.69;102726.44;4984337;28;20050;-73
2023/12/15 07:06:05;;;;;;;13.50;8.40;;;;;;;6.61;55.49;102735.44;4966964;28;20129;-74
2023/12/15 07:08:33;;;;;;;14.43;8.43;;;;;;;6.62;55.45;102739.03;4982781;28;20050;-72
2023/12/15 07:11:01;;;;;;;13.20;8.68;;;;;;;6.61;55.53;102746.31;4966248;28;20129;-73
2023/12/15 07:13:29;;;;;;;14.90;8.35;;;;;;;6.62;55.31;102747.22;4952145;28;20035;-74
2023/12/15 07:15:57;;;;;;;14.55;8.30;;;;;;;6.62;55.66;102753.53;4966655;28;20050;-74
2023/12/15 07:18:29;;;;;;;12.27;7.97;;;;;;;6.65;55.64;102763.41;4963283;28;20050;-73
2023/12/15 07:20:57;;;;;;;14.13;7.63;;;;;;;6.63;55.53;102766.19;4951491;28;20047;-74
2023/12/15 07:23:25;;;;;;;15.55;8.73;;;;;;;6.65;55.64;102777.03;4950544;28;20046;-74
2023/12/15 07:25:53;;;;;;;13.93;9.27;;;;;;;6.64;55.47;102770.69;4967492;28;20048;-73
2023/12/15 07:28:21;;;;;;;14.18;8.10;;;;;;;6.66;55.89;102781.53;4964663;28;20050;-73
2023/12/15 07:30:49;;;;;;;14.65;8.27;;;;;;;6.66;55.68;102776.09;4966480;28;20043;-73
2023/12/15 07:33:17;;;;;;;13.85;8.30;;;;;;;6.66;55.96;102771.53;4966582;28;20163;-74
2023/12/15 07:35:47;;;;;;;17.27;9.20;;;;;;;6.69;55.80;102776.84;4949637;28;20510;-73
2023/12/15 07:38:15;;;;;;;17.27;9.02;;;;;;;6.68;55.86;102775.09;4950951;28;20057;-71
2023/12/15 07:40:43;;;;;;;17.05;9.02;;;;;;;6.69;55.86;102775.97;4972575;28;20039;-72
2023/12/15 07:43:11;;;;;;;14.57;8.98;;;;;;;6.70;55.75;102794.91;4970248;28;20057;-72
2023/12/15 07:45:39;;;;;;;16.25;8.85;;;;;;;6.72;56.08;102794.88;4968401;28;20061;-72
2023/12/15 07:48:07;;;;;;;15.45;8.82;;;;;;;6.72;56.07;102797.59;4968452;28;20201;-72
2023/12/15 07:50:36;;;;;;;18.10;9.25;;;;;;;6.72;56.15;102803.03;4950009;28;20578;-72
2023/12/15 07:53:05;;;;;;;18.13;9.38;;;;;;;6.75;55.95;102802.94;4968229;28;20054;-73
2023/12/15 07:55:33;;;;;;;15.35;8.80;;;;;;;6.74;55.97;102801.16;4971604;28;20043;-73
2023/12/15 07:58:01;;;;;;;15.77;8.15;;;;;;;6.74;55.72;102798.41;4966797;28;20420;-73
2023/12/15 08:00:29;;;;;;;16.67;8.88;;;;;;;6.74;56.34;102802.06;4952302;28;20130;-73
2023/12/15 08:02:57;;;;;;;17.05;9.32;;;;;;;6.74;56.09;102807.50;4973775;28;20053;-73
2023/12/15 08:05:25;;;;;;;18.90;8.80;;;;;;;6.75;55.91;102811.13;4959569;28;20105;-74
2023/12/15 08:07:53;;;;;;;16.65;8.75;;;;;;;6.74;56.20;102809.31;4959962;28;20090;-75
2023/12/15 08:10:25;;;;;;;18.85;9.82;;;;;;;6.77;56.38;102821.00;4969968;28;20447;-74
2023/12/15 08:12:53;;;;;;;15.80;8.95;;;;;;;6.74;56.21;102815.66;4952175;28;20043;-75
2023/12/15 08:15:21;;;;;;;18.45;9.88;;;;;;;6.76;55.95;102829.22;4956674;28;20046;-75
2023/12/15 08:17:49;;;;;;;17.58;9.10;;;;;;;6.77;56.31;102823.72;4971666;28;20042;-75
2023/12/15 08:20:17;;;;;;;17.27;8.93;;;;;;;6.77;56.24;102821.00;4958687;28;20073;-75
2023/12/15 08:22:45;;;;;;;17.33;9.18;;;;;;;6.77;56.37;102831.88;4973951;28;20074;-75
2023/12/15 08:25:13;;;;;;;18.10;9.15;;;;;;;6.79;56.44;102845.41;4973081;28;20058;-73
2023/12/15 08:27:42;;;;;;;16.63;8.85;;;;;;;6.79;56.36;102849.00;4953477;28;20058;-75
2023/12/15 08:30:11;;;;;;;17.77;10.15;;;;;;;6.80;56.69;102860.78;4957444;28;20043;-75
2023/12/15 08:32:39;;;;;;;19.38;9.82;;;;;;;6.80;56.66;102861.69;4970874;28;20424;-75
2023/12/15 08:35:08;;;;;;;16.67;9.20;;;;;;;6.82;56.26;102861.63;4950721;28;20492;-75
2023/12/15 08:37:36;;;;;;;22.10;10.90;;;;;;;6.82;56.64;102867.97;4968016;28;20042;-74
2023/12/15 08:40:05;;;;;;;17.20;9.27;;;;;;;6.83;56.24;102868.84;4951152;28;20055;-75
2023/12/15 08:42:33;;;;;;;19.48;9.57;;;;;;;6.84;56.53;102872.47;4973600;28;20097;-73
2023/12/15 08:45:02;;;;;;;20.45;10.10;;;;;;;6.85;56.24;102879.69;4967569;28;20055;-75
2023/12/15 08:47:30;;;;;;;19.50;10.20;;;;;;;6.84;56.62;102884.22;4972353;28;20038;-75
2023/12/15 08:49:58;;;;;;;18.08;8.77;;;;;;;6.85;56.68;102899.63;4970629;28;20068;-75
2023/12/15 08:52:26;;;;;;;18.25;9.45;;;;;;;6.86;56.55;102900.50;4970389;28;20316;-75
2023/12/15 08:54:54;;;;;;;20.08;10.13;;;;;;;6.86;56.61;102904.09;4953525;28;20074;-75
2023/12/15 08:57:22;;;;;;;17.67;9.65;;;;;;;6.88;56.74;102914.91;4963322;28;20496;-74
2023/12/15 08:59:51;;;;;;;21.65;9.75;;;;;;;6.88;56.74;102921.25;4972769;28;20110;-74
2023/12/15 09:02:20;;;;;;;19.88;9.57;;;;;;;6.90;56.73;102924.81;4954507;28;20058;-75
2023/12/15 09:04:48;;;;;;;19.95;9.57;;;;;;;6.91;56.79;102928.41;4955586;28;20146;-75
2023/12/15 09:07:28;;;;;;;20.35;9.95;;;;;;;6.91;57.08;102928.41;4970273;28;20047;-75
2023/12/15 09:09:56;;;;;;;19.27;9.98;;;;;;;6.93;56.91;102938.31;4972205;28;20520;-74
2023/12/15 09:12:24;;;;;;;21.85;10.15;;;;;;;6.95;56.69;102940.94;4956818;28;20610;-74
2023/12/15 09:14:52;;;;;;;21.58;10.48;;;;;;;6.95;56.61;102944.56;4975776;28;20078;-74
2023/12/15 09:17:22;;;;;;;20.00;9.88;;;;;;;6.97;57.08;102941.78;4956937;28;20058;-73
2023/12/15 09:19:49;;;;;;;18.83;10.32;;;;;;;6.97;56.65;102949.94;4971885;28;20050;-74
2023/12/15 09:22:18;;;;;;;18.80;10.30;;;;;;;6.97;56.82;102945.38;4953000;28;20176;-73
2023/12/15 09:24:46;;;;;;;21.10;10.32;;;;;;;6.98;56.98;102954.44;4970685;28;20396;-74
2023/12/15 09:27:14;;;;;;;19.33;9.77;;;;;;;6.99;56.80;102962.56;4970036;28;20046;-73
2023/12/15 09:29:41;;;;;;;21.95;10.05;;;;;;;6.99;56.73;102958.94;4967113;28;20049;-73
2023/12/15 09:32:09;;;;;;;20.02;10.38;;;;;;;7.01;57.10;102962.50;4950450;28;20049;-74
2023/12/15 09:34:39;;;;;;;22.52;10.27;;;;;;;7.04;56.81;102973.25;4967664;28;20039;-73
2023/12/15 09:37:07;;;;;;;22.70;11.32;;;;;;;7.04;57.06;102975.97;4954330;28;20452;-72
2023/12/15 09:39:36;;;;;;;21.85;9.95;;;;;;;7.05;57.12;102983.19;4965489;28;20411;-73
2023/12/15 09:42:04;;;;;;;23.00;11.32;;;;;;;7.06;57.21;102984.97;4975439;28;20046;-73
2023/12/15 09:44:32;;;;;;;18.67;10.30;;;;;;;7.06;57.17;102993.16;4970003;28;20038;-73
2023/12/15 09:47:00;;;;;;;20.02;10.60;;;;;;;7.06;57.08;102988.59;4968272;28;20058;-74
2023/12/15 09:49:31;;;;;;;20.63;11.05;;;;;;;7.09;56.85;102984.88;4967670;28;20050;-73
2023/12/15 09:52:03;;;;;;;21.30;10.48;;;;;;;7.11;57.56;103002.00;4969020;28;20723;-71
2023/12/15 09:54:34;;;;;;;21.52;11.55;;;;;;;7.10;57.26;103006.59;4968620;28;20042;-73
2023/12/15 09:57:03;;;;;;;24.38;11.52;;;;;;;7.12;57.14;103009.22;4951268;28;20591;-72
2023/12/15 09:59:31;;;;;;;24.73;11.32;;;;;;;7.11;56.98;102999.28;4966383;28;20039;-72
2023/12/15 10:01:59;;;;;;;21.95;11.60;;;;;;;7.13;56.90;103005.56;4971030;28;20066;-73
2023/12/15 10:04:27;;;;;;;20.98;11.05;;;;;;;7.13;57.08;103000.13;4953230;28;20592;-73
2023/12/15 10:06:55;;;;;;;23.75;11.73;;;;;;;7.13;57.09;103008.28;4972635;28;20516;-73
2023/12/15 10:09:24;;;;;;;23.70;11.57;;;;;;;7.16;57.06;103010.91;4968256;28;20047;-73
2023/12/15 10:11:55;;;;;;;22.95;11.77;;;;;;;7.13;57.03;103009.19;4966731;28;20133;-73
2023/12/15 10:14:23;;;;;;;19.65;11.23;;;;;;;7.15;57.39;103018.19;4951470;28;20066;-72
2023/12/15 10:16:51;;;;;;;23.80;11.27;;;;;;;7.17;57.23;103027.19;4953234;28;20055;-74
2023/12/15 10:19:19;;;;;;;21.52;11.15;;;;;;;7.18;57.18;103036.25;4954007;28;20134;-73
2023/12/15 10:21:48;;;;;;;20.90;10.85;;;;;;;7.18;57.42;103028.97;4970079;28;20047;-75
2023/12/15 10:24:19;;;;;;;23.10;11.60;;;;;;;7.22;57.21;103040.63;4972101;28;20138;-74
2023/12/15 10:26:49;;;;;;;20.45;10.57;;;;;;;7.21;57.24;103047.00;4956922;28;20525;-73
2023/12/15 10:29:19;;;;;;;24.25;12.25;;;;;;;7.23;57.37;103052.41;4952954;28;20055;-74
2023/12/15 10:31:49;;;;;;;22.70;11.23;;;;;;;7.23;57.19;103052.41;4953235;28;20056;-74
2023/12/15 10:34:18;;;;;;;22.63;10.63;;;;;;;7.23;57.00;103050.56;4952175;28;20043;-74
2023/12/15 10:36:46;;;;;;;23.00;11.05;;;;;;;7.24;57.11;103055.06;4953774;28;20082;-74
2023/12/15 10:39:15;;;;;;;20.77;10.40;;;;;;;7.25;57.07;103045.97;4950885;28;20490;-73
2023/12/15 10:41:44;;;;;;;21.42;10.60;;;;;;;7.26;57.21;103042.28;4953220;28;20404;-72
2023/12/15 10:44:14;;;;;;;20.33;11.00;;;;;;;7.28;57.35;103043.09;4956587;28;20097;-74
2023/12/15 10:46:44;;;;;;;19.45;10.50;;;;;;;7.28;56.96;103036.75;4969434;28;20547;-74
2023/12/15 10:49:12;;;;;;;23.48;12.07;;;;;;;7.28;57.42;103032.19;4951345;28;20519;-74
2023/12/15 10:51:41;;;;;;;22.92;11.68;;;;;;;7.30;57.41;103045.75;4969326;28;20047;-73
2023/12/15 10:54:09;;;;;;;21.50;11.45;;;;;;;7.31;57.25;103042.09;4972371;28;20069;-74
2023/12/15 10:56:38;;;;;;;20.90;11.48;;;;;;;7.32;57.13;103050.22;4969974;28;20050;-74
2023/12/15 10:59:07;;;;;;;19.83;9.98;;;;;;;7.34;57.60;103061.06;4968910;28;20058;-74
2023/12/15 11:01:40;;;;;;;23.95;11.60;;;;;;;7.37;57.53;103063.63;4966927;28;20101;-74
2023/12/15 11:04:16;;;;;;;;;;;;;;;7.10;58.65;103063.78;4950656;28;20098;-74
2023/12/15 11:06:45;;;;;;;20.85;10.13;;;;;;;7.32;57.49;103063.84;4969283;28;19945;-73
2023/12/15 11:09:27;;;;;;;20.95;10.27;;;;;;;7.39;57.68;103068.09;4967462;28;20443;-73
2023/12/15 11:12:38;;;;;;;18.98;9.23;;;;;;;7.34;58.04;103075.56;4966583;28;20086;-73
2023/12/15 11:15:08;;;;;;;21.67;10.95;;;;;;;7.39;57.69;103078.09;4939377;28;22555;-75
2023/12/15 11:17:42;;;;;;;20.65;10.40;;;;;;;7.41;57.79;103074.38;4952182;28;20504;-74
2023/12/15 11:20:13;;;;;;;23.30;11.52;;;;;;;7.42;57.40;103083.44;4967989;28;20161;-74
2023/12/15 11:22:43;;;;;;;22.23;11.13;;;;;;;7.44;57.69;103097.84;4954665;28;20059;-73
2023/12/15 11:25:18;;;;;;;24.13;11.82;;;;;;;7.46;57.55;103101.41;4970343;28;20611;-74
2023/12/15 11:28:00;;;;;;;24.40;12.07;;;;;;;7.46;58.03;103095.97;4965956;28;20055;-74
2023/12/15 11:30:30;;;;;;;22.08;11.52;;;;;;;7.45;57.57;103105.97;4948056;28;20045;-73